KLNK

Lincoln Airport

Lincoln, Nebraska, USA
KLNK 200527Z 2006/2106 VRB05KT P6SM BKN200 FM201200 14006KT P6SM BKN140 FM202300 11006KT P6SM BKN100 FM210100 11007KT P6SM BKN060
Issued Valid From Valid To
Jan-20 @ 05:27 UTC
(6 hours ago)
Jan-20 @ 06:00 UTC
(5 hours ago)
Jan-21 @ 06:00 UTC
(in 19 hours)
Jan-20 @ 06:00 to Jan-20 @ 12:00
KLNK 200527Z 2006/2106 VRB05KT P6SM BKN200
Wind Visibility Clouds
Variable at 5 knots Greater than 6 miles
  • Broken at 20,000' AGL
From Jan-20 @ 12:00 to Jan-20 @ 23:00
FM201200 14006KT P6SM BKN140
Wind Visibility Clouds
140° at 6 knots Greater than 6 miles
  • Broken at 14,000' AGL
From Jan-20 @ 23:00 to Jan-21 @ 01:00
FM202300 11006KT P6SM BKN100
Wind Visibility Clouds
110° at 6 knots Greater than 6 miles
  • Broken at 10,000' AGL
From Jan-21 @ 01:00 to Jan-21 @ 06:00
FM210100 11007KT P6SM BKN060
Wind Visibility Clouds
110° at 7 knots Greater than 6 miles
  • Broken at 6,000' AGL
KLNK 200527Z 2006/2106 VRB05KT P6SM BKN200 FM201200 14006KT P6SM BKN140 FM202300 11006KT P6SM BKN100 FM210100 11007KT P6SM BKN060
Issued Jan-20 @ 05:27 UTC
(6 hours ago)
Valid From Jan-20 @ 06:00 UTC
(5 hours ago)
Valid To Jan-21 @ 06:00 UTC
(in 19 hours)
Jan-20 @ 06:00 - Jan-20 @ 12:00
Wind Visibility
Variable at 5 knots Greater than 6 miles
Clouds
  • Broken at 20,000' AGL
From Jan-20 @ 12:00 - Jan-20 @ 23:00
Wind Visibility
140° at 6 knots Greater than 6 miles
Clouds
  • Broken at 14,000' AGL
From Jan-20 @ 23:00 - Jan-21 @ 01:00
Wind Visibility
110° at 6 knots Greater than 6 miles
Clouds
  • Broken at 10,000' AGL
From Jan-21 @ 01:00 - Jan-21 @ 06:00
Wind Visibility
110° at 7 knots Greater than 6 miles
Clouds
  • Broken at 6,000' AGL